Time;durP1;ratioP1;P1;durP2;ratioP2;P2;SDS_P1;SDS_P2;PMS_P1;PMS_P2;Temp;Humidity;BMP_temperature;BMP_pressure;BME280_temperature;BME280_humidity;BME280_pressure;Samples;Min_cycle;Max_cycle;Signal;HPM_P1;HPM_P2
2022/01/14 00:00:44;;;;;;;7.15;2.92;;;;;;;0.41;39.36;94201.09;4951895;29;20493;-88
2022/01/14 00:03:12;;;;;;;10.25;2.75;;;;;;;0.18;39.30;94174.66;4951423;29;20050;-89
2022/01/14 00:05:48;;;;;;;10.13;3.35;;;;;;;0.08;39.30;94156.94;4951645;29;20050;-89
2022/01/14 00:08:19;;;;;;;6.93;2.88;;;;;;;0.17;39.54;94179.03;4967930;28;20492;-88
2022/01/14 00:10:49;;;;;;;6.35;2.70;;;;;;;0.43;39.18;94215.56;4937162;28;20200;-89
2022/01/14 00:14:07;;;;;;;6.55;2.60;;;;;;;0.03;39.20;94159.25;4942209;29;20493;-89
2022/01/14 00:16:32;;;;;;;8.40;3.17;;;;;;;0.35;39.22;94214.69;4951020;29;20048;-89
2022/01/14 00:19:04;;;;;;;6.13;2.78;;;;;;;0.00;39.12;94167.34;4945603;29;20142;-89
2022/01/14 00:21:37;;;;;;;7.68;3.00;;;;;;;-0.02;39.59;94162.38;4953416;29;20074;-89
2022/01/14 00:24:09;;;;;;;5.95;2.47;;;;;;;0.11;39.18;94182.34;4920427;29;20103;-89
2022/01/14 00:32:15;;;;;;;7.28;2.70;;;;;;;0.54;39.37;94226.22;4954171;28;20082;-89
2022/01/14 00:34:41;;;;;;;7.25;2.70;;;;;;;0.49;38.52;94220.78;4951982;29;20043;-89
2022/01/14 00:37:09;;;;;;;5.50;2.50;;;;;;;0.38;39.07;94200.66;4919716;29;20466;-90
2022/01/14 00:39:39;;;;;;;6.18;2.90;;;;;;;0.30;38.76;94182.75;4937083;29;20047;-89
2022/01/14 00:42:22;;;;;;;;;;;;;;;;;;;;;
2022/01/14 00:44:50;;;;;;;7.70;2.60;;;;;;;0.45;38.45;94203.31;4937913;29;20062;-89
2022/01/14 00:47:27;;;;;;;6.80;3.03;;;;;;;0.49;38.37;94200.19;4939013;29;20675;-89
2022/01/14 00:49:55;;;;;;;5.53;2.50;;;;;;;0.15;37.63;94147.50;4939541;29;20114;-90
2022/01/14 00:52:24;;;;;;;4.88;2.15;;;;;;;0.18;38.04;94136.03;4923851;29;20283;-90
2022/01/14 00:54:49;;;;;;;5.15;2.40;;;;;;;0.44;37.68;94176.75;4938623;29;20565;-89
2022/01/14 00:59:14;;;;;;;5.32;2.28;;;;;;;0.75;37.23;94224.66;4923344;29;20070;-88
2022/01/14 01:00:15;;;;;;;12.88;2.63;;;;;;;0.56;37.30;94185.59;4938705;29;20047;-89
2022/01/14 01:02:43;;;;;;;6.35;2.33;;;;;;;0.59;37.51;94195.53;4967539;28;20031;-89
2022/01/14 01:05:12;;;;;;;6.35;2.55;;;;;;;0.48;37.91;94177.97;4938273;29;20358;-88
2022/01/14 01:07:43;;;;;;;7.18;2.70;;;;;;;0.28;37.66;94141.69;4978402;28;20031;-89
2022/01/14 01:10:16;;;;;;;7.10;2.65;;;;;;;0.33;37.89;94149.66;4979100;28;20035;-89
2022/01/14 01:12:53;;;;;;;5.93;2.45;;;;;;;0.33;37.81;94148.88;4978553;28;20068;-89
2022/01/14 01:15:36;;;;;;;5.43;2.65;;;;;;;0.50;37.98;94170.88;4991916;28;20131;-88
2022/01/14 01:18:12;;;;;;;6.38;2.38;;;;;;;0.60;38.08;94186.81;4992155;28;20091;-89
2022/01/14 01:20:38;;;;;;;5.32;2.45;;;;;;;0.60;38.75;94189.38;4977964;28;20031;-89
2022/01/14 01:23:09;;;;;;;6.55;2.42;;;;;;;0.62;38.19;94192.59;4978772;28;20055;-89
2022/01/14 01:25:54;;;;;;;4.65;2.10;;;;;;;0.80;38.02;94209.41;4962733;28;20043;-89
2022/01/14 01:28:19;;;;;;;3.75;1.92;;;;;;;0.76;37.51;94190.16;4939830;28;20051;-88
2022/01/14 01:30:51;;;;;;;5.05;2.22;;;;;;;0.52;37.77;94153.44;4938077;29;20043;-89
2022/01/14 01:33:17;;;;;;;4.80;2.20;;;;;;;0.80;38.12;94192.16;4938190;29;20043;-89
2022/01/14 01:35:46;;;;;;;4.70;2.05;;;;;;;0.76;38.09;94180.63;4969417;28;20758;-89
2022/01/14 01:38:17;;;;;;;3.58;1.77;;;;;;;0.45;37.94;94136.31;4938385;29;20067;-89
2022/01/14 01:40:50;;;;;;;5.15;1.95;;;;;;;0.40;38.26;94127.34;4970102;28;20129;-89
2022/01/14 01:43:20;;;;;;;4.78;2.40;;;;;;;0.49;38.21;94138.34;4969328;28;20062;-90
2022/01/14 01:45:50;;;;;;;4.35;1.90;;;;;;;0.83;37.33;94175.53;4953802;29;20039;-89
2022/01/14 01:48:18;;;;;;;4.37;1.90;;;;;;;0.53;37.59;94131.84;4953776;29;20067;-88
2022/01/14 01:50:44;;;;;;;4.55;2.08;;;;;;;0.58;37.09;94137.22;4968915;28;20271;-89
2022/01/14 01:53:10;;;;;;;3.13;1.60;;;;;;;0.81;37.34;94156.88;4953656;29;20035;-89
2022/01/14 01:55:48;;;;;;;4.53;1.60;;;;;;;0.69;37.54;94135.16;4924685;29;20045;-89
2022/01/14 01:58:13;;;;;;;4.13;1.83;;;;;;;1.00;36.93;94174.31;4937265;29;20039;-88
2022/01/14 02:00:42;;;;;;;3.90;1.63;;;;;;;0.73;37.33;94133.81;4937765;29;20046;-89
2022/01/14 02:03:08;;;;;;;4.10;1.75;;;;;;;1.02;37.54;94174.91;4937588;29;20047;-89
2022/01/14 02:05:48;;;;;;;3.15;1.75;;;;;;;0.69;37.51;94124.84;4937342;29;20035;-89
2022/01/14 02:08:18;;;;;;;3.75;1.67;;;;;;;0.74;37.08;94125.06;4937349;29;20043;-89
2022/01/14 02:10:46;;;;;;;3.80;1.52;;;;;;;1.07;37.18;94170.97;4937813;29;20043;-88
2022/01/14 02:13:15;;;;;;;6.18;1.98;;;;;;;1.10;36.90;94165.44;4969388;28;20031;-88
2022/01/14 02:18:36;;;;;;;5.28;1.77;;;;;;;1.10;36.96;94149.97;4928477;29;20055;-89
2022/01/14 02:24:06;;;;;;;4.88;1.65;;;;;;;1.07;36.65;94151.13;4949762;29;20445;-90
2022/01/14 02:26:46;;;;;;;3.63;1.50;;;;;;;0.78;36.51;94093.59;4950085;29;20078;-88
2022/01/14 02:29:15;;;;;;;5.57;1.80;;;;;;;0.86;37.04;94104.75;4949839;29;20087;-89
2022/01/14 02:31:45;;;;;;;4.35;1.52;;;;;;;1.02;36.74;94114.81;4933398;29;20063;-89
2022/01/14 02:34:28;;;;;;;3.88;1.75;;;;;;;1.17;37.23;94140.50;4919016;29;20035;-89
2022/01/14 02:36:56;;;;;;;3.90;1.63;;;;;;;1.36;36.91;94163.06;4927360;29;20052;-89
2022/01/14 02:39:22;;;;;;;4.13;1.85;;;;;;;1.20;36.97;94132.41;4916214;29;20032;-89
2022/01/14 02:41:50;;;;;;;8.25;1.90;;;;;;;0.93;36.11;94085.78;4917561;29;20100;-89
2022/01/14 02:44:26;;;;;;;3.42;1.70;;;;;;;0.99;35.59;94073.91;4918697;29;20035;-89
2022/01/14 02:47:04;;;;;;;3.08;1.42;;;;;;;1.00;36.07;94072.94;4933897;29;20039;-89
2022/01/14 02:49:35;;;;;;;4.35;1.52;;;;;;;1.03;36.57;94081.06;4933164;29;20075;-88
2022/01/14 02:52:12;;;;;;;3.10;1.58;;;;;;;1.20;37.06;94107.38;4934477;29;20687;-89
2022/01/14 02:55:02;;;;;;;4.38;1.35;;;;;;;1.13;36.86;94114.28;4935004;29;20050;-89
2022/01/14 02:57:34;;;;;;;2.05;1.30;;;;;;;1.08;36.55;94110.66;4949762;28;20135;-89
2022/01/14 03:00:08;;;;;;;4.03;1.50;;;;;;;0.94;36.46;94087.34;4933499;29;20055;-89
2022/01/14 03:02:54;;;;;;;3.20;1.50;;;;;;;1.04;36.17;94105.91;4922323;29;20043;-89
2022/01/14 03:05:23;;;;;;;4.85;1.70;;;;;;;0.76;36.16;94061.25;4949695;29;20122;-89
2022/01/14 03:07:53;;;;;;;2.92;1.40;;;;;;;0.88;36.27;94087.31;4917074;29;20035;-89
2022/01/14 03:10:22;;;;;;;2.90;1.52;;;;;;;0.67;36.49;94052.84;4949648;28;20057;-89
2022/01/14 03:12:53;;;;;;;2.40;1.30;;;;;;;0.92;36.30;94104.78;4948961;29;20039;-89
2022/01/14 03:15:21;;;;;;;2.58;1.45;;;;;;;0.58;36.32;94059.91;4961067;29;20043;-89
2022/01/14 03:18:03;;;;;;;2.20;1.40;;;;;;;0.66;35.99;94069.31;4931075;29;20182;-89
2022/01/14 03:23:25;;;;;;;3.38;1.38;;;;;;;0.96;35.54;94097.50;4936943;29;20059;-89
2022/01/14 03:25:51;;;;;;;6.93;2.03;;;;;;;0.67;35.69;94055.44;4952077;29;20078;-90
2022/01/14 03:28:24;;;;;;;4.93;2.30;;;;;;;0.96;35.28;94097.50;4952211;28;20082;-89
2022/01/14 03:30:56;;;;;;;4.63;1.88;;;;;;;1.11;35.51;94118.84;4928118;29;20039;-89
2022/01/14 03:33:31;;;;;;;4.75;1.63;;;;;;;0.97;35.67;94089.59;4936943;29;20090;-89
2022/01/14 03:36:01;;;;;;;3.33;1.45;;;;;;;0.71;35.23;94050.72;4936016;29;20516;-88
2022/01/14 03:38:32;;;;;;;3.47;1.70;;;;;;;1.01;35.45;94095.97;4936002;29;20362;-88
2022/01/14 03:41:10;;;;;;;2.50;1.38;;;;;;;1.08;34.92;94084.88;4952220;29;20046;-89
2022/01/14 03:43:42;;;;;;;2.50;1.30;;;;;;;1.12;34.62;94086.88;4935929;29;20102;-88
2022/01/14 03:46:19;;;;;;;3.85;1.60;;;;;;;0.76;34.91;94038.84;4952885;29;20039;-89
2022/01/14 03:48:48;;;;;;;5.00;1.40;;;;;;;1.09;35.20;94086.47;4968205;28;20074;-89
2022/01/14 03:51:24;;;;;;;2.40;1.30;;;;;;;0.78;35.78;94038.66;4953554;29;20035;-89
2022/01/14 03:53:50;;;;;;;3.83;1.48;;;;;;;0.79;35.90;94035.91;4967592;28;20042;-89
2022/01/14 03:56:16;;;;;;;2.50;1.40;;;;;;;1.06;36.51;94077.34;4951362;29;20113;-89
2022/01/14 03:58:47;;;;;;;3.23;1.60;;;;;;;0.75;36.70;94028.72;4952549;29;20034;-89
2022/01/14 04:01:18;;;;;;;3.60;1.45;;;;;;;0.71;36.40;94022.34;4951430;29;20286;-89
2022/01/14 04:03:46;;;;;;;3.72;1.77;;;;;;;1.08;37.00;94077.13;4967348;28;20039;-89
2022/01/14 04:06:18;;;;;;;3.70;1.60;;;;;;;0.71;36.56;94022.34;4936285;29;20032;-88
2022/01/14 04:08:44;;;;;;;3.38;1.48;;;;;;;0.72;36.10;94014.44;4951812;29;20038;-89
2022/01/14 04:11:11;;;;;;;3.92;1.80;;;;;;;0.70;36.23;94005.28;4967674;28;20046;-89
2022/01/14 04:13:47;;;;;;;6.10;2.00;;;;;;;0.76;36.71;94020.78;4967019;28;20485;-89
2022/01/14 04:16:23;;;;;;;9.38;1.83;;;;;;;1.04;36.77;94058.69;4953325;29;20035;-89
2022/01/14 04:18:59;;;;;;;4.18;1.83;;;;;;;1.04;36.64;94063.84;4955545;29;20047;-89
2022/01/14 04:21:29;;;;;;;5.28;1.73;;;;;;;1.01;36.28;94057.28;4955832;29;20058;-88
2022/01/14 04:24:10;;;;;;;2.80;1.60;;;;;;;1.09;37.19;94071.00;4955403;29;20047;-89
2022/01/14 04:26:40;;;;;;;4.85;1.90;;;;;;;0.60;37.34;93996.09;4955274;29;20222;-88
2022/01/14 04:29:06;;;;;;;5.43;2.15;;;;;;;0.83;37.68;94026.81;4954553;29;20047;-88
2022/01/14 04:31:31;;;;;;;3.97;1.77;;;;;;;0.77;37.40;93995.84;4938491;29;20034;-89
2022/01/14 04:34:04;;;;;;;4.57;1.75;;;;;;;1.07;37.24;94031.72;4939139;29;20071;-89
2022/01/14 04:36:43;;;;;;;;;;;;;;;;;;;;;
2022/01/14 04:39:16;;;;;;;2.80;1.50;;;;;;;1.28;36.58;94059.19;4955941;29;20071;-88
2022/01/14 04:41:49;;;;;;;4.00;1.70;;;;;;;1.17;36.30;94035.53;4924711;29;20070;-90
2022/01/14 04:44:15;;;;;;;4.05;1.98;;;;;;;0.77;36.64;93970.84;4954578;29;20039;-89
2022/01/14 04:47:01;;;;;;;6.30;1.70;;;;;;;0.74;36.67;93957.53;4955954;29;20039;-89
2022/01/14 04:49:32;;;;;;;3.80;1.77;;;;;;;1.05;36.61;94006.09;4939031;29;20399;-88
2022/01/14 04:52:08;;;;;;;4.20;1.83;;;;;;;1.25;36.71;94039.75;4940172;29;20141;-89
2022/01/14 04:54:39;;;;;;;3.60;1.73;;;;;;;0.82;36.07;93958.16;4938976;29;20035;-89
2022/01/14 04:57:09;;;;;;;4.13;1.70;;;;;;;1.16;36.21;94015.09;4937909;29;20069;-89
2022/01/14 04:59:35;;;;;;;4.30;1.83;;;;;;;1.14;36.45;94011.91;4938479;29;20043;-89
2022/01/14 05:02:04;;;;;;;5.53;1.80;;;;;;;0.91;36.19;93971.72;4938296;29;20605;-89
2022/01/14 05:04:35;;;;;;;4.22;1.75;;;;;;;1.08;36.69;93995.41;4922650;29;20058;-89
2022/01/14 05:07:03;;;;;;;3.28;1.50;;;;;;;1.11;36.41;94007.13;4954848;29;20709;-89
2022/01/14 05:09:38;;;;;;;4.50;1.60;;;;;;;0.91;36.00;93966.56;4935823;29;20032;-90
2022/01/14 05:12:09;;;;;;;5.22;1.75;;;;;;;1.40;35.87;94043.00;4954184;28;20093;-89
2022/01/14 05:14:38;;;;;;;3.60;1.77;;;;;;;1.34;36.12;94038.59;4938478;29;20117;-89
2022/01/14 05:17:25;;;;;;;3.92;1.20;;;;;;;1.36;35.82;94035.84;4938240;29;20539;-88
2022/01/14 05:19:54;;;;;;;3.00;1.50;;;;;;;0.79;35.69;93958.56;4941442;29;20070;-89
2022/01/14 05:22:21;;;;;;;6.15;1.42;;;;;;;1.12;35.50;94003.56;4939953;29;20122;-89
2022/01/14 05:24:59;;;;;;;1.88;1.20;;;;;;;0.80;35.60;93960.13;4953570;28;20101;-89
2022/01/14 05:27:41;;;;;;;;;;;;;;;;;;;;;
2022/01/14 05:30:24;;;;;;;5.03;1.60;;;;;;;0.73;36.08;93951.59;4950132;28;20050;-88
2022/01/14 05:36:40;;;;;;;;;;;;;;;;;;;;;
2022/01/14 05:40:10;;;;;;;2.88;1.30;;;;;;;0.73;36.02;93949.00;4939844;29;20054;-90
2022/01/14 05:42:40;;;;;;;2.78;1.35;;;;;;;1.01;36.29;93986.84;4953653;28;20063;-89
2022/01/14 05:45:54;;;;;;;2.83;1.48;;;;;;;1.34;35.69;94030.06;4954282;29;20508;-90
2022/01/14 06:03:37;;;;;;;3.30;1.25;;;;;;;1.28;34.92;94017.94;4915718;29;20492;-90
2022/01/14 06:10:06;;;;;;;3.13;1.48;;;;;;;1.28;34.82;94013.56;4939405;29;20132;-90
2022/01/14 06:12:31;;;;;;;2.75;1.42;;;;;;;1.22;34.83;93996.28;4954842;28;20434;-90
2022/01/14 06:14:57;;;;;;;2.15;1.23;;;;;;;1.34;34.99;94017.16;4943731;29;20031;-90
2022/01/14 06:17:23;;;;;;;3.05;1.40;;;;;;;1.15;35.38;93982.53;4949788;28;20044;-88
2022/01/14 06:20:44;;;;;;;2.38;1.30;;;;;;;1.42;35.26;94027.34;4945145;29;20383;-90
2022/01/14 06:23:27;;;;;;;1.95;1.33;;;;;;;1.01;36.67;93972.19;4921953;29;20051;-90
2022/01/14 06:30:09;;;;;;;2.08;1.10;;;;;;;1.48;35.37;94015.44;4919038;28;20047;-90
2022/01/14 06:47:57;;;;;;;1.88;1.20;;;;;;;1.59;36.49;93996.81;4956885;29;20401;-89
2022/01/14 06:57:54;;;;;;;2.17;1.30;;;;;;;1.61;37.21;93987.09;4957193;29;20570;-90
2022/01/14 07:04:58;;;;;;;3.20;1.42;;;;;;;1.73;37.68;94005.41;4957226;29;20412;-90
2022/01/14 07:11:37;;;;;;;1.88;1.38;;;;;;;1.71;37.17;93989.28;4956757;29;20113;-90
2022/01/14 07:17:59;;;;;;;2.85;1.27;;;;;;;1.78;36.76;93997.84;4965902;28;20049;-90
2022/01/14 07:20:57;;;;;;;5.47;1.67;;;;;;;1.91;36.43;93994.50;4920318;29;20108;-90
2022/01/14 07:23:22;;;;;;;2.25;1.20;;;;;;;1.78;36.21;93967.69;4935561;29;20520;-90
2022/01/14 07:25:48;;;;;;;4.85;1.40;;;;;;;2.06;36.17;93987.41;4937012;29;20031;-90
2022/01/14 07:28:14;;;;;;;5.32;1.55;;;;;;;3.60;34.46;93988.75;4921657;29;20040;-90
2022/01/14 07:34:40;;;;;;;3.55;1.70;;;;;;;10.22;25.22;93968.56;4937307;29;20426;-91
2022/01/14 07:41:16;;;;;;;3.67;1.75;;;;;;;14.30;20.62;93961.81;4936425;29;20132;-91
2022/01/14 07:43:46;;;;;;;4.05;1.70;;;;;;;15.45;19.36;93945.59;4920294;29;20043;-91
2022/01/14 07:46:12;;;;;;;5.03;2.00;;;;;;;16.54;18.04;93937.91;4935790;29;20052;-91
2022/01/14 07:48:51;;;;;;;3.15;1.85;;;;;;;17.43;17.06;93918.44;4918709;29;20426;-91
2022/01/14 07:55:42;;;;;;;4.35;1.70;;;;;;;20.18;15.01;93947.53;4937544;29;20046;-91
2022/01/14 07:58:08;;;;;;;2.85;1.50;;;;;;;20.96;13.65;93922.84;4935175;29;20043;-91
2022/01/14 08:00:43;;;;;;;3.67;1.65;;;;;;;21.73;13.62;93943.44;4935150;29;20115;-92
2022/01/14 08:03:09;;;;;;;3.95;2.00;;;;;;;22.53;13.29;93946.16;4935378;29;20071;-91
2022/01/14 08:05:37;;;;;;;4.60;2.05;;;;;;;23.13;12.39;93944.13;4919533;29;20548;-91
2022/01/14 08:08:04;;;;;;;3.70;1.75;;;;;;;23.52;12.22;93943.88;4950721;28;20138;-91
2022/01/14 08:10:35;;;;;;;4.05;1.80;;;;;;;24.23;11.61;93935.44;4936255;29;20140;-91
2022/01/14 08:16:34;;;;;;;4.93;2.28;;;;;;;25.18;10.61;93929.69;4931268;29;20040;-92
2022/01/14 08:19:02;;;;;;;6.00;2.10;;;;;;;25.79;10.53;93920.50;4933224;28;20070;-90
2022/01/14 08:21:28;;;;;;;4.68;1.85;;;;;;;26.65;9.95;93900.97;4944832;28;20032;-91
2022/01/14 08:23:53;;;;;;;3.55;1.70;;;;;;;27.12;10.04;93929.50;4920680;29;20046;-91
2022/01/14 08:26:19;;;;;;;3.70;1.90;;;;;;;27.34;9.79;93935.31;4932485;29;20040;-90
2022/01/14 08:28:48;;;;;;;4.97;2.03;;;;;;;27.65;9.78;93914.69;4915124;29;20048;-90
2022/01/14 08:31:15;;;;;;;3.65;1.80;;;;;;;28.34;9.37;93941.53;4900519;29;20561;-90
2022/01/14 08:33:42;;;;;;;2.88;1.58;;;;;;;28.62;9.03;93927.72;4931571;28;20036;-90
2022/01/14 08:36:10;;;;;;;3.78;1.80;;;;;;;29.00;8.73;93925.84;4914007;29;20565;-91
2022/01/14 08:38:37;;;;;;;7.72;1.80;;;;;;;29.24;7.89;93925.34;4916575;29;20039;-90
2022/01/14 08:41:04;;;;;;;8.02;1.80;;;;;;;29.48;8.39;93926.00;4915190;29;20047;-90
2022/01/14 08:43:29;;;;;;;4.40;2.20;;;;;;;29.38;8.13;93922.03;4916273;29;20040;-90
2022/01/14 08:45:58;;;;;;;7.28;1.95;;;;;;;29.55;8.40;93920.66;4945756;28;20027;-90
2022/01/14 08:48:27;;;;;;;3.65;1.95;;;;;;;28.68;8.55;93920.84;4907888;29;20044;-91
2022/01/14 08:50:53;;;;;;;4.40;2.20;;;;;;;28.42;8.46;93898.19;4915644;29;20028;-90
2022/01/14 08:53:21;;;;;;;6.32;2.22;;;;;;;28.78;7.95;93874.41;4936923;29;20062;-90
2022/01/14 08:55:47;;;;;;;9.75;2.72;;;;;;;28.59;8.51;93904.19;4938480;29;20079;-90
2022/01/14 08:58:13;;;;;;;7.57;2.60;;;;;;;27.94;8.98;93911.34;4934141;29;20044;-90
2022/01/14 09:00:38;;;;;;;5.55;2.25;;;;;;;27.72;8.82;93890.59;4918118;29;20028;-90
2022/01/14 09:03:05;;;;;;;4.45;2.20;;;;;;;27.68;9.36;93903.22;4915648;29;20040;-90
2022/01/14 09:05:31;;;;;;;6.30;2.60;;;;;;;28.30;8.38;93892.22;4950060;28;20031;-89
2022/01/14 09:08:00;;;;;;;9.05;2.78;;;;;;;26.82;9.18;93891.72;4925312;29;20670;-90
2022/01/14 09:10:26;;;;;;;7.50;2.20;;;;;;;25.67;10.63;93891.88;4916017;29;20091;-90
2022/01/14 09:12:52;;;;;;;4.45;2.25;;;;;;;24.80;10.83;93898.06;4928929;29;20051;-90
2022/01/14 09:15:17;;;;;;;5.18;2.15;;;;;;;23.11;11.95;93892.13;4948998;28;20406;-90
2022/01/14 09:17:43;;;;;;;4.72;2.17;;;;;;;21.61;12.62;93886.28;4934025;29;20408;-89
2022/01/14 09:20:11;;;;;;;4.97;1.92;;;;;;;20.86;12.86;93880.59;4961516;28;20142;-90
2022/01/14 09:22:36;;;;;;;4.55;2.10;;;;;;;20.54;14.23;93887.19;4936638;29;20122;-90
2022/01/14 09:25:07;;;;;;;8.13;2.72;;;;;;;20.63;14.68;93892.53;4944839;29;20178;-91
2022/01/14 09:27:33;;;;;;;6.00;2.47;;;;;;;20.22;14.39;93878.59;4944626;29;20042;-91
2022/01/14 09:30:04;;;;;;;7.32;2.97;;;;;;;19.75;15.38;93889.75;4946114;29;20039;-90
2022/01/14 09:32:32;;;;;;;8.95;2.90;;;;;;;19.04;16.26;93894.28;4952976;28;20118;-90
2022/01/14 09:35:05;;;;;;;5.03;2.50;;;;;;;18.07;16.28;93894.66;4938435;28;20135;-90
2022/01/14 09:37:35;;;;;;;7.43;2.67;;;;;;;17.64;16.56;93876.47;4941118;28;20488;-90
2022/01/14 09:40:01;;;;;;;5.28;2.28;;;;;;;17.68;16.40;93825.28;4953633;28;20047;-90
2022/01/14 09:42:27;;;;;;;9.00;2.63;;;;;;;18.27;16.56;93885.50;4961007;28;20535;-89
2022/01/14 09:44:53;;;;;;;10.55;2.95;;;;;;;17.13;17.25;93819.25;4937738;29;20130;-89
2022/01/14 09:47:20;;;;;;;10.98;3.35;;;;;;;17.56;18.07;93891.19;4936853;29;20637;-90
2022/01/14 09:49:47;;;;;;;8.57;3.58;;;;;;;16.76;17.97;93848.19;4937497;28;20137;-90
2022/01/14 09:52:14;;;;;;;8.30;3.35;;;;;;;17.06;18.40;93886.53;4954599;29;20039;-90
2022/01/14 09:54:43;;;;;;;8.35;2.78;;;;;;;17.43;17.85;93873.47;4952912;29;20079;-91
2022/01/14 09:57:12;;;;;;;6.20;2.63;;;;;;;16.98;18.20;93886.47;4946862;28;20036;-90
2022/01/14 09:59:37;;;;;;;6.53;2.60;;;;;;;17.27;18.12;93896.78;4968363;28;20035;-89
2022/01/14 10:02:07;;;;;;;6.72;2.40;;;;;;;18.29;16.97;93888.63;4920231;28;20047;-91
2022/01/14 10:04:59;;;;;;;5.97;2.70;;;;;;;17.58;17.13;93824.69;4920572;28;20038;-92
2022/01/14 10:08:20;;;;;;;;;;;;;;;;;;;;;
2022/01/14 10:11:35;;;;;;;10.55;4.13;;;;;;;16.91;18.36;93852.47;4943543;28;20040;-91
2022/01/14 10:14:46;;;;;;;9.38;3.70;;;;;;;16.41;18.83;93838.97;4934999;29;20039;-90
2022/01/14 10:17:44;;;;;;;8.50;3.45;;;;;;;15.33;19.50;93823.81;4952369;28;20035;-91
2022/01/14 10:20:32;;;;;;;8.38;3.63;;;;;;;15.49;20.02;93809.41;4942862;28;20054;-90
2022/01/14 10:23:18;;;;;;;6.93;2.88;;;;;;;16.44;18.63;93810.13;4956593;28;20031;-91
2022/01/14 10:25:58;;;;;;;10.93;2.85;;;;;;;17.09;17.11;93800.53;4936058;28;20043;-91
2022/01/14 10:29:05;;;;;;;8.40;3.05;;;;;;;16.21;18.25;93800.44;4947732;28;20043;-90
2022/01/14 10:31:48;;;;;;;6.05;2.70;;;;;;;17.44;17.39;93822.06;4953288;29;20130;-91
2022/01/14 10:34:56;;;;;;;10.73;3.53;;;;;;;16.92;17.88;93824.91;4951060;28;20039;-91
2022/01/14 10:37:34;;;;;;;;;;;;;;;;;;;;;
2022/01/14 10:40:28;;;;;;;9.48;2.92;;;;;;;17.04;17.59;93816.50;4952213;28;20043;-91
2022/01/14 10:43:07;;;;;;;6.15;2.85;;;;;;;16.56;18.07;93785.09;4937134;29;20043;-91
2022/01/14 10:46:02;;;;;;;6.72;2.58;;;;;;;16.49;18.31;93838.31;4946607;28;20061;-91
2022/01/14 10:48:36;;;;;;;6.97;2.90;;;;;;;16.87;18.38;93779.28;4936807;28;20071;-91
2022/01/14 10:51:23;;;;;;;6.57;2.72;;;;;;;16.81;17.91;93754.78;4959736;28;20027;-91
2022/01/14 10:54:01;;;;;;;6.72;2.78;;;;;;;16.21;19.17;93766.09;4952832;28;20065;-92
2022/01/14 10:56:34;;;;;;;7.05;3.25;;;;;;;16.18;19.01;93750.84;4968840;28;20039;-91
2022/01/14 10:59:30;;;;;;;8.63;3.00;;;;;;;16.29;18.96;93799.78;4935376;28;20031;-92
2022/01/14 11:02:48;;;;;;;7.15;3.03;;;;;;;17.08;18.67;93811.41;4965564;28;20397;-91
2022/01/14 11:05:22;;;;;;;13.57;3.13;;;;;;;16.14;19.71;93773.63;4923054;29;20085;-91
2022/01/14 11:10:50;;;;;;;9.43;3.70;;;;;;;15.11;20.26;93737.34;4945579;28;20040;-91
2022/01/14 11:13:35;;;;;;;;;;;;;;;;;;;;;
2022/01/14 11:16:08;;;;;;;6.85;2.70;;;;;;;15.77;19.93;93748.84;4946244;28;20204;-91
2022/01/14 11:18:38;;;;;;;11.95;3.08;;;;;;;15.39;19.62;93738.28;4966218;28;20523;-91
2022/01/14 11:24:18;;;;;;;7.05;2.65;;;;;;;17.23;18.06;93751.03;4927060;29;20039;-92
2022/01/14 11:27:40;;;;;;;5.47;2.13;;;;;;;18.09;17.65;93726.38;4931443;28;20047;-91
2022/01/14 11:30:38;;;;;;;7.60;2.50;;;;;;;18.14;16.76;93711.44;4950398;29;20481;-91
2022/01/14 11:33:16;;;;;;;10.63;3.40;;;;;;;17.17;17.92;93694.00;4961476;28;20072;-91
2022/01/14 11:36:16;;;;;;;7.55;2.67;;;;;;;16.17;19.19;93694.59;4935051;29;20046;-91
2022/01/14 11:38:55;;;;;;;7.28;2.83;;;;;;;16.12;18.75;93675.41;4949178;28;20061;-89
2022/01/14 11:41:55;;;;;;;5.53;2.63;;;;;;;16.39;18.85;93733.59;4935166;29;20042;-91
2022/01/14 11:44:49;;;;;;;7.28;3.13;;;;;;;16.25;18.64;93679.91;4952023;28;20098;-92
2022/01/14 11:47:36;;;;;;;8.60;2.50;;;;;;;16.37;18.99;93732.28;4920743;29;20089;-92
2022/01/14 11:50:21;;;;;;;6.82;2.45;;;;;;;15.37;19.51;93703.47;4938324;29;20038;-92
2022/01/14 11:53:04;;;;;;;;;;;;;;;;;;;;;
2022/01/14 11:55:38;;;;;;;9.40;3.33;;;;;;;14.51;21.29;93654.19;4968658;28;20051;-91
2022/01/14 11:58:33;;;;;;;8.13;3.00;;;;;;;15.00;21.38;93683.94;4937308;29;20043;-91
2022/01/14 12:01:17;;;;;;;6.95;3.40;;;;;;;14.85;20.38;93642.75;4939000;29;20035;-92
2022/01/14 12:04:01;;;;;;;6.55;2.80;;;;;;;14.80;20.98;93647.31;4944924;28;20090;-92
2022/01/14 12:06:50;;;;;;;5.28;2.22;;;;;;;14.89;20.56;93688.56;4937408;29;20055;-89
2022/01/14 12:09:33;;;;;;;5.47;2.17;;;;;;;14.02;20.59;93639.44;4957725;28;20298;-91
2022/01/14 12:12:49;;;;;;;6.80;2.67;;;;;;;14.63;20.47;93632.72;4935914;29;20473;-89
2022/01/14 12:15:54;;;;;;;5.55;1.77;;;;;;;14.86;19.19;93699.69;4898102;29;20540;-90
2022/01/14 12:18:54;;;;;;;6.65;2.33;;;;;;;15.03;19.98;93687.88;4930064;29;20433;-91
2022/01/14 12:21:41;;;;;;;4.82;1.90;;;;;;;15.23;19.20;93692.84;4945713;28;20441;-90
2022/01/14 12:24:21;;;;;;;4.00;1.85;;;;;;;14.77;19.64;93669.72;4965982;28;20031;-89
2022/01/14 12:27:09;;;;;;;3.90;1.90;;;;;;;15.71;18.31;93691.91;4962947;28;20059;-92
2022/01/14 12:52:01;;;;;;;3.92;2.00;;;;;;;15.36;18.46;93643.88;4966953;28;20037;-74
2022/01/14 12:54:38;;;;;;;3.60;1.70;;;;;;;15.09;18.42;93640.03;4976141;28;20360;-74
2022/01/14 12:57:04;;;;;;;5.55;2.15;;;;;;;15.11;18.92;93637.91;4984385;28;20073;-74
2022/01/14 12:59:40;;;;;;;5.03;2.28;;;;;;;15.19;20.01;93639.09;4988284;28;20042;-74
2022/01/14 13:02:05;;;;;;;9.18;2.80;;;;;;;14.76;20.90;93631.25;4988047;28;20524;-74
2022/01/14 13:04:31;;;;;;;4.70;2.45;;;;;;;14.49;21.10;93637.88;4956335;28;20102;-74
2022/01/14 13:07:01;;;;;;;8.02;2.50;;;;;;;14.76;21.44;93626.78;4969254;28;20104;-74
2022/01/14 13:09:30;;;;;;;6.45;2.75;;;;;;;14.82;21.90;93624.09;4959546;28;20038;-74
2022/01/14 13:12:16;;;;;;;7.60;2.60;;;;;;;15.43;20.75;93617.91;4974891;28;20133;-74
2022/01/14 13:14:48;;;;;;;8.20;2.72;;;;;;;15.49;20.87;93627.31;4986175;28;20161;-74
2022/01/14 13:17:26;;;;;;;6.32;3.17;;;;;;;15.47;20.91;93624.19;4974940;28;20034;-73
2022/01/14 13:20:01;;;;;;;6.68;2.53;;;;;;;15.74;19.84;93612.94;4991644;28;20034;-73
2022/01/14 13:22:30;;;;;;;9.05;3.00;;;;;;;16.05;19.38;93616.91;4973064;28;20096;-74
2022/01/14 13:25:16;;;;;;;5.70;2.53;;;;;;;15.81;20.88;93609.94;4970341;28;20058;-73
2022/01/14 13:27:55;;;;;;;11.32;2.80;;;;;;;15.56;20.71;93613.75;4957134;28;20030;-74
2022/01/14 13:30:27;;;;;;;6.10;2.55;;;;;;;15.54;20.92;93603.47;4982659;28;20125;-74
2022/01/14 13:32:57;;;;;;;7.77;3.03;;;;;;;15.39;20.38;93603.72;4965229;28;20034;-73
2022/01/14 13:35:36;;;;;;;6.50;2.45;;;;;;;15.26;20.30;93601.81;4990312;28;20364;-74
2022/01/14 13:38:05;;;;;;;9.73;3.03;;;;;;;15.24;20.38;93598.69;4968743;28;20412;-73
2022/01/14 13:40:34;;;;;;;10.38;2.95;;;;;;;15.07;20.89;93593.94;4988856;28;20112;-73
2022/01/14 13:43:10;;;;;;;7.80;3.40;;;;;;;15.40;19.86;93597.38;4975402;28;20125;-73
2022/01/14 13:45:40;;;;;;;10.98;4.18;;;;;;;15.34;20.24;93586.13;4974402;28;20038;-73
2022/01/14 13:48:25;;;;;;;8.43;3.00;;;;;;;15.33;20.53;93594.31;5002854;28;20046;-73
2022/01/14 13:50:54;;;;;;;7.88;2.92;;;;;;;15.66;19.56;93578.50;4992688;28;20447;-73
2022/01/14 13:53:27;;;;;;;8.48;4.20;;;;;;;15.42;19.80;93571.47;4993063;28;20042;-73
2022/01/14 13:56:02;;;;;;;7.53;3.47;;;;;;;15.30;19.63;93584.34;4991845;28;20487;-73
2022/01/14 13:58:28;;;;;;;7.22;2.50;;;;;;;15.27;19.65;93577.03;4992550;28;20073;-73
2022/01/14 14:01:02;;;;;;;13.75;4.40;;;;;;;15.45;19.23;93573.56;4992910;28;20403;-73
2022/01/14 14:03:40;;;;;;;14.93;3.70;;;;;;;15.44;19.48;93577.25;4978965;28;20548;-73
2022/01/14 14:06:11;;;;;;;8.23;3.00;;;;;;;15.07;19.70;93568.34;4984446;28;20039;-73
2022/01/14 14:17:16;;;;;;;6.85;3.20;;;;;;;15.57;19.62;93563.31;4992514;28;20101;-73
2022/01/14 14:19:46;;;;;;;5.93;2.90;;;;;;;15.52;20.11;93560.75;4992386;28;20491;-73
2022/01/14 14:22:16;;;;;;;8.93;2.70;;;;;;;15.35;20.65;93555.25;4983377;28;20041;-74
2022/01/14 14:24:55;;;;;;;6.72;2.75;;;;;;;15.25;20.58;93548.28;4991241;28;20041;-74
2022/01/14 14:27:21;;;;;;;6.15;2.38;;;;;;;15.65;20.65;93558.44;4991217;28;20263;-73
2022/01/14 14:29:54;;;;;;;5.10;2.63;;;;;;;15.74;20.36;93554.09;4991378;28;20068;-73
2022/01/14 14:32:34;;;;;;;9.30;2.50;;;;;;;15.37;21.29;93545.19;4992326;28;20145;-74
2022/01/14 14:35:10;;;;;;;7.00;2.97;;;;;;;15.04;21.20;93547.03;4992071;28;20062;-73